Time;durP1;ratioP1;P1;durP2;ratioP2;P2;SDS_P1;SDS_P2;PMS_P1;PMS_P2;Temp;Humidity;BMP_temperature;BMP_pressure;BME280_temperature;BME280_humidity;BME280_pressure;Samples;Min_cycle;Max_cycle;Signal;HPM_P1;HPM_P2
2023/04/12 00:01:30;;;;;;;6.40;3.33;;;;;;;12.53;70.27;100423.31;5024072;28;20492;-43
2023/04/12 00:03:56;;;;;;;6.72;3.15;;;;;;;12.52;70.21;100416.34;5021013;28;20053;-44
2023/04/12 00:06:26;;;;;;;6.70;3.20;;;;;;;12.44;70.25;100415.50;5023399;28;20088;-45
2023/04/12 00:08:52;;;;;;;5.43;3.00;;;;;;;12.43;70.51;100398.94;5024212;28;20482;-42
2023/04/12 00:11:17;;;;;;;6.72;3.17;;;;;;;12.35;70.34;100398.06;5028332;28;20033;-43
2023/04/12 00:13:42;;;;;;;6.53;3.10;;;;;;;12.51;70.23;100391.06;5031839;28;20037;-45
2023/04/12 00:16:08;;;;;;;5.80;2.85;;;;;;;12.70;69.60;100387.53;5020764;28;20052;-42
2023/04/12 00:18:33;;;;;;;7.32;3.13;;;;;;;12.54;70.20;100378.00;5027041;28;20118;-42
2023/04/12 00:20:59;;;;;;;6.93;3.20;;;;;;;12.47;70.39;100369.28;5027964;28;20121;-42
2023/04/12 00:23:24;;;;;;;5.18;2.83;;;;;;;12.55;70.18;100361.44;5030146;28;20052;-43
2023/04/12 00:25:50;;;;;;;4.63;2.72;;;;;;;12.35;70.82;100343.19;5023980;28;20083;-44
2023/04/12 00:28:15;;;;;;;6.03;3.08;;;;;;;12.43;70.55;100328.34;5022083;28;20203;-44
2023/04/12 00:30:41;;;;;;;6.15;3.08;;;;;;;12.52;70.41;100319.59;5025178;28;20041;-44
2023/04/12 00:33:06;;;;;;;5.80;3.30;;;;;;;11.89;72.11;100307.56;5022594;28;20049;-42
2023/04/12 00:35:32;;;;;;;6.47;3.00;;;;;;;12.23;71.84;100304.00;5023916;28;20025;-45
2023/04/12 00:37:57;;;;;;;5.75;3.15;;;;;;;12.05;72.25;100297.06;5020306;28;20071;-51
2023/04/12 00:40:23;;;;;;;6.75;3.17;;;;;;;12.02;72.19;100298.81;5025866;28;20037;-44
2023/04/12 00:42:48;;;;;;;8.98;2.92;;;;;;;12.42;70.94;100287.41;5024268;28;20026;-43
2023/04/12 00:45:13;;;;;;;8.40;3.00;;;;;;;11.96;72.34;100285.75;5020101;28;20029;-43
2023/04/12 00:47:41;;;;;;;5.88;2.92;;;;;;;12.21;72.29;100269.16;5024069;28;20654;-43
2023/04/12 00:50:08;;;;;;;5.10;2.72;;;;;;;12.21;71.80;100261.31;5019681;28;20112;-44
2023/04/12 00:52:34;;;;;;;4.90;2.90;;;;;;;12.07;72.15;100261.38;5023596;28;20038;-43
2023/04/12 00:55:04;;;;;;;5.97;2.70;;;;;;;12.35;71.12;100258.66;5020150;28;20026;-46
2023/04/12 00:57:37;;;;;;;6.72;2.95;;;;;;;11.97;72.07;100248.31;5021620;28;20044;-44
2023/04/12 01:00:09;;;;;;;5.40;2.70;;;;;;;12.00;72.53;100235.25;5021558;28;20026;-43
2023/04/12 01:02:37;;;;;;;5.53;2.78;;;;;;;12.47;70.93;100233.34;5026566;28;20103;-43
2023/04/12 01:05:04;;;;;;;5.88;2.80;;;;;;;12.29;71.07;100227.31;5023419;28;20040;-45
2023/04/12 01:07:54;;;;;;;5.43;2.65;;;;;;;12.12;71.83;100216.94;5026905;28;20087;-43
2023/04/12 01:10:33;;;;;;;4.88;2.63;;;;;;;12.18;71.56;100212.56;5021460;28;20115;-44
2023/04/12 01:13:32;;;;;;;6.32;2.47;;;;;;;12.23;71.73;100204.69;5021635;28;20059;-44
2023/04/12 01:16:06;;;;;;;5.10;2.25;;;;;;;12.36;71.00;100189.81;5020157;28;20068;-45
2023/04/12 01:18:39;;;;;;;4.85;2.30;;;;;;;12.05;71.99;100191.69;5024345;28;20033;-46
2023/04/12 01:21:09;;;;;;;4.40;2.50;;;;;;;12.12;71.42;100177.75;5019242;28;20030;-45
2023/04/12 01:23:57;;;;;;;5.10;2.50;;;;;;;12.08;71.79;100166.41;5020513;28;20122;-43
2023/04/12 01:26:25;;;;;;;5.90;2.38;;;;;;;11.82;72.17;100175.22;5019546;28;20108;-43
2023/04/12 01:28:52;;;;;;;4.55;2.30;;;;;;;12.06;71.39;100165.56;5022888;28;20045;-44
2023/04/12 01:31:20;;;;;;;5.15;2.22;;;;;;;11.85;72.75;100152.56;5019478;28;20045;-44
2023/04/12 01:33:46;;;;;;;4.15;2.03;;;;;;;11.67;72.45;100137.81;5024343;28;20500;-43
2023/04/12 01:36:18;;;;;;;3.47;2.08;;;;;;;12.02;71.89;100145.53;5022588;28;20069;-42
2023/04/12 01:38:45;;;;;;;4.18;2.00;;;;;;;12.06;71.76;100130.75;5024260;28;20100;-43
2023/04/12 01:41:11;;;;;;;4.22;2.22;;;;;;;11.98;72.07;100115.09;5021999;28;20048;-46
2023/04/12 01:43:43;;;;;;;3.65;1.90;;;;;;;12.17;71.66;100108.91;5024805;28;20030;-45
2023/04/12 01:46:15;;;;;;;5.60;2.10;;;;;;;12.03;71.85;100102.00;5022598;28;20128;-47
2023/04/12 01:48:48;;;;;;;3.08;1.80;;;;;;;11.94;71.74;100096.84;5025837;28;20105;-43
2023/04/12 01:51:16;;;;;;;3.28;1.90;;;;;;;12.16;71.33;100099.31;5022709;28;20061;-45
2023/04/12 01:53:56;;;;;;;4.18;2.00;;;;;;;12.28;71.22;100090.53;5026008;28;20033;-42
2023/04/12 01:56:23;;;;;;;4.07;1.80;;;;;;;12.24;70.74;100082.75;5022268;28;20040;-46
2023/04/12 01:58:52;;;;;;;4.35;1.90;;;;;;;12.39;70.56;100078.28;5028064;28;20503;-43
2023/04/12 02:01:18;;;;;;;4.95;1.92;;;;;;;12.16;71.21;100062.75;5026726;28;20065;-45
2023/04/12 02:03:44;;;;;;;2.67;1.70;;;;;;;12.11;71.43;100061.91;5025279;28;20053;-45
2023/04/12 02:06:11;;;;;;;2.53;1.80;;;;;;;12.10;71.58;100070.63;5022432;28;20037;-42
2023/04/12 02:08:36;;;;;;;3.13;1.88;;;;;;;12.11;71.37;100058.44;5025702;28;20033;-43
2023/04/12 02:11:11;;;;;;;3.85;1.67;;;;;;;11.87;72.28;100048.09;5021761;28;20545;-45
2023/04/12 02:13:37;;;;;;;4.47;1.80;;;;;;;11.60;73.74;100031.66;5025601;28;20056;-43
2023/04/12 02:16:03;;;;;;;4.28;1.90;;;;;;;12.10;71.76;100041.88;5024569;28;20480;-47
2023/04/12 02:18:29;;;;;;;3.88;1.73;;;;;;;11.89;72.33;100048.97;5029061;28;20113;-45
2023/04/12 02:20:55;;;;;;;3.05;1.70;;;;;;;12.17;71.59;100030.50;5030037;28;20129;-44
2023/04/12 02:23:20;;;;;;;2.97;1.50;;;;;;;12.14;72.33;100021.81;5026359;28;20041;-46
2023/04/12 02:25:46;;;;;;;3.17;1.77;;;;;;;11.77;72.89;100014.19;5025553;28;20030;-43
2023/04/12 02:28:12;;;;;;;3.70;1.80;;;;;;;12.03;72.63;100007.94;5021711;28;20037;-44
2023/04/12 02:30:38;;;;;;;3.22;1.80;;;;;;;12.03;72.92;100000.97;5024557;28;20083;-44
2023/04/12 02:33:04;;;;;;;3.45;1.75;;;;;;;11.97;72.63;99992.31;5022226;28;20029;-46
2023/04/12 02:35:31;;;;;;;2.90;1.80;;;;;;;12.10;72.35;99992.22;5025979;28;20033;-44
2023/04/12 02:37:56;;;;;;;2.63;1.70;;;;;;;12.38;71.25;99984.19;5024091;28;20137;-48
2023/04/12 02:40:22;;;;;;;3.40;1.70;;;;;;;12.24;72.23;99983.44;5025019;28;20124;-43
2023/04/12 02:42:47;;;;;;;3.10;1.88;;;;;;;12.33;71.84;99970.28;5025470;28;20037;-43
2023/04/12 02:45:13;;;;;;;4.05;1.83;;;;;;;12.26;72.17;99989.53;5022668;28;20029;-44
2023/04/12 02:47:39;;;;;;;3.50;1.80;;;;;;;12.02;72.33;99978.34;5026093;28;20503;-42
2023/04/12 02:50:06;;;;;;;4.13;1.92;;;;;;;12.31;72.18;99957.25;5023320;28;20496;-43
2023/04/12 02:52:32;;;;;;;4.15;1.60;;;;;;;12.41;71.66;99958.91;5027947;28;20034;-42
2023/04/12 02:54:58;;;;;;;3.42;1.70;;;;;;;12.29;72.23;99953.78;5022502;28;20060;-46
2023/04/12 02:57:23;;;;;;;3.38;1.60;;;;;;;12.15;72.39;99939.94;5026546;28;20488;-43
2023/04/12 02:59:52;;;;;;;3.58;1.85;;;;;;;12.41;72.16;99945.81;5024835;28;20044;-44
2023/04/12 03:02:21;;;;;;;5.95;1.80;;;;;;;12.41;71.97;99951.06;5011497;22;20069;-39
2023/04/12 03:04:49;;;;;;;3.15;1.73;;;;;;;11.99;73.18;99930.50;4990764;28;20041;-38
2023/04/12 03:07:17;;;;;;;3.30;1.80;;;;;;;12.25;72.80;99936.38;4981155;28;20042;-37
2023/04/12 03:09:44;;;;;;;3.03;1.80;;;;;;;12.41;72.17;99924.03;4984569;28;20077;-39
2023/04/12 03:12:09;;;;;;;3.28;1.75;;;;;;;12.12;73.00;99913.84;4981677;28;20033;-39
2023/04/12 03:14:35;;;;;;;3.03;1.73;;;;;;;12.23;73.06;99914.63;4985006;28;20038;-38
2023/04/12 03:17:00;;;;;;;3.08;1.80;;;;;;;12.15;73.22;99904.22;4982354;28;20378;-38
2023/04/12 03:19:25;;;;;;;3.10;1.88;;;;;;;12.14;72.88;99905.09;4984622;28;20026;-39
2023/04/12 03:21:50;;;;;;;4.10;1.83;;;;;;;11.91;74.34;99922.72;4986111;28;20018;-39
2023/04/12 03:24:16;;;;;;;2.47;1.73;;;;;;;11.68;74.98;99915.00;4981153;28;20133;-40
2023/04/12 03:26:45;;;;;;;2.78;1.92;;;;;;;11.35;75.93;99925.63;4985701;28;20026;-38
2023/04/12 03:29:10;;;;;;;2.47;1.60;;;;;;;11.94;74.63;99908.78;4979843;28;20057;-38
2023/04/12 03:31:35;;;;;;;2.55;1.70;;;;;;;11.98;74.18;99900.88;4986053;28;20481;-38
2023/04/12 03:34:01;;;;;;;2.78;1.60;;;;;;;12.20;73.71;99898.94;4981933;28;20034;-39
2023/04/12 03:36:28;;;;;;;2.72;1.73;;;;;;;12.20;73.14;99888.50;4984262;28;20416;-38
2023/04/12 03:38:54;;;;;;;2.92;1.65;;;;;;;12.11;73.56;99879.00;4983719;28;20292;-38
2023/04/12 03:41:22;;;;;;;3.03;1.58;;;;;;;12.18;73.42;99887.66;4980054;28;20027;-38
2023/04/12 03:43:47;;;;;;;2.35;1.70;;;;;;;12.29;73.12;99871.88;4983351;28;20503;-38
2023/04/12 03:46:14;;;;;;;3.22;1.75;;;;;;;12.23;73.20;99879.78;4978712;28;20125;-38
2023/04/12 03:48:39;;;;;;;3.72;1.75;;;;;;;12.26;73.07;99871.94;4983531;28;20040;-38
2023/04/12 03:51:06;;;;;;;2.42;1.70;;;;;;;12.49;72.70;99869.94;4980210;28;20404;-40
2023/04/12 03:53:32;;;;;;;2.53;1.70;;;;;;;12.33;73.14;99865.75;4984128;28;20047;-38
2023/04/12 03:55:57;;;;;;;2.85;1.80;;;;;;;12.36;73.08;99858.75;4979583;28;20030;-39
2023/04/12 03:58:22;;;;;;;2.40;1.77;;;;;;;12.16;73.63;99845.00;4982784;28;20126;-40
2023/04/12 04:00:48;;;;;;;2.70;1.90;;;;;;;12.39;73.05;99848.25;4983813;28;20054;-38
2023/04/12 04:03:14;;;;;;;2.22;1.67;;;;;;;12.63;72.00;99843.63;4979971;28;20125;-38
2023/04/12 04:05:40;;;;;;;3.25;1.67;;;;;;;12.51;72.29;99853.34;4980335;28;20088;-35
2023/04/12 04:08:05;;;;;;;2.30;1.75;;;;;;;12.39;72.83;99839.53;4979723;28;20043;-38
2023/04/12 04:10:31;;;;;;;3.30;1.80;;;;;;;12.30;72.66;99835.28;4983931;28;20045;-38
2023/04/12 04:12:56;;;;;;;2.50;1.90;;;;;;;12.56;72.43;99842.88;4979835;28;20507;-38
2023/04/12 04:15:23;;;;;;;4.28;2.20;;;;;;;12.55;72.29;99836.75;4981866;28;20038;-37
2023/04/12 04:17:49;;;;;;;3.70;2.30;;;;;;;11.98;74.59;99859.09;4982132;28;20030;-37
2023/04/12 04:20:14;;;;;;;3.25;2.50;;;;;;;12.10;74.81;99860.72;4979176;28;20469;-39
2023/04/12 04:22:43;;;;;;;4.03;2.70;;;;;;;11.91;74.83;99852.19;4983345;28;20552;-37
2023/04/12 04:25:09;;;;;;;3.67;2.88;;;;;;;11.81;75.41;99854.88;4979529;28;20041;-39
2023/04/12 04:27:37;;;;;;;6.55;3.10;;;;;;;12.17;74.54;99850.22;4983422;28;20053;-42
2023/04/12 04:30:03;;;;;;;5.28;3.45;;;;;;;12.33;74.13;99850.06;4982049;28;20037;-39
2023/04/12 04:32:30;;;;;;;7.93;4.20;;;;;;;12.21;74.25;99851.03;4986819;28;20089;-38
2023/04/12 04:34:58;;;;;;;5.65;3.95;;;;;;;12.18;74.52;99854.56;4986538;28;20030;-38
2023/04/12 04:37:24;;;;;;;6.40;4.30;;;;;;;12.36;73.50;99857.88;4983702;28;20027;-39
2023/04/12 04:39:49;;;;;;;6.50;4.40;;;;;;;12.45;73.77;99850.78;4986021;28;20065;-38
2023/04/12 04:42:15;;;;;;;6.45;5.28;;;;;;;12.17;74.67;99858.06;4984694;28;20072;-38
2023/04/12 04:44:40;;;;;;;6.97;5.18;;;;;;;12.42;74.01;99866.53;4984895;28;20034;-38
2023/04/12 04:47:07;;;;;;;7.80;5.20;;;;;;;12.66;73.24;99867.16;4982943;28;20039;-40
2023/04/12 04:49:33;;;;;;;6.68;5.00;;;;;;;12.73;72.87;99861.84;4986498;28;20031;-37
2023/04/12 04:51:58;;;;;;;7.32;5.40;;;;;;;12.40;73.87;99863.06;4983907;28;20045;-38
2023/04/12 04:54:23;;;;;;;7.30;5.03;;;;;;;12.56;73.82;99851.53;4985935;28;20034;-38
2023/04/12 04:56:48;;;;;;;7.43;4.90;;;;;;;12.52;74.11;99859.44;4982327;28;20089;-37
2023/04/12 04:59:16;;;;;;;8.07;4.90;;;;;;;12.45;74.61;99852.53;4979732;28;20113;-40
2023/04/12 05:01:41;;;;;;;7.18;4.68;;;;;;;12.77;73.71;99866.13;4982444;28;20035;-38
2023/04/12 05:04:07;;;;;;;7.05;4.55;;;;;;;12.84;73.48;99854.72;4979732;28;20101;-39
2023/04/12 05:06:32;;;;;;;6.70;4.38;;;;;;;12.90;73.42;99852.03;4985639;28;20033;-40
2023/04/12 05:09:00;;;;;;;7.07;4.18;;;;;;;12.81;73.77;99849.50;4983857;28;20038;-37
2023/04/12 05:11:26;;;;;;;7.57;4.47;;;;;;;12.84;73.68;99856.47;4988846;28;20113;-37
2023/04/12 05:13:51;;;;;;;7.80;4.20;;;;;;;12.63;74.87;99852.34;4986736;28;20125;-37
2023/04/12 05:16:16;;;;;;;9.32;4.93;;;;;;;12.65;74.80;99850.59;4982450;28;20045;-39
2023/04/12 05:18:43;;;;;;;9.20;4.35;;;;;;;12.99;73.47;99841.44;4986008;28;20035;-37
2023/04/12 05:21:08;;;;;;;9.30;4.35;;;;;;;13.04;73.16;99843.16;4983239;28;20034;-38
2023/04/12 05:23:41;;;;;;;8.48;4.05;;;;;;;12.74;74.27;99845.28;4986600;28;20122;-38
2023/04/12 05:26:06;;;;;;;9.23;4.03;;;;;;;12.86;73.96;99839.03;4982925;28;20117;-40
2023/04/12 05:28:32;;;;;;;10.02;3.78;;;;;;;12.73;74.27;99848.75;4987024;28;20330;-39
2023/04/12 05:30:57;;;;;;;10.52;3.83;;;;;;;12.32;75.09;99843.13;4982943;28;20374;-42
2023/04/12 05:33:23;;;;;;;8.00;3.10;;;;;;;12.63;74.63;99844.50;4986333;28;20085;-38
2023/04/12 05:35:48;;;;;;;14.35;3.58;;;;;;;12.72;74.25;99844.41;4986381;28;20492;-38
2023/04/12 05:38:14;;;;;;;6.60;2.80;;;;;;;12.72;73.87;99848.78;4982904;28;20555;-41
2023/04/12 05:40:42;;;;;;;14.13;3.20;;;;;;;12.42;75.06;99850.84;4987012;28;20062;-38
2023/04/12 05:43:11;;;;;;;12.15;3.00;;;;;;;12.49;74.83;99854.25;4982581;28;20113;-38
2023/04/12 05:45:36;;;;;;;8.43;2.55;;;;;;;12.80;73.67;99858.28;4986226;28;20049;-38
2023/04/12 05:48:01;;;;;;;9.48;2.58;;;;;;;12.65;73.66;99850.59;4983218;28;20035;-37
2023/04/12 05:50:27;;;;;;;10.65;2.22;;;;;;;12.55;74.11;99856.81;4986267;28;20056;-38
2023/04/12 05:52:53;;;;;;;21.10;2.88;;;;;;;12.53;73.79;99854.22;4985984;28;20034;-38
2023/04/12 05:55:20;;;;;;;13.27;2.60;;;;;;;12.83;72.84;99846.88;4984514;28;20051;-39
2023/04/12 05:57:46;;;;;;;10.20;2.38;;;;;;;12.82;72.89;99851.25;4991789;28;20520;-37
2023/04/12 06:00:15;;;;;;;13.73;2.58;;;;;;;12.55;73.22;99854.19;4988999;28;20030;-38
2023/04/12 06:02:40;;;;;;;8.88;2.20;;;;;;;12.66;72.17;99862.78;4990285;28;20061;-39
2023/04/12 06:05:06;;;;;;;11.98;2.20;;;;;;;12.50;72.71;99854.22;4983116;28;20034;-39
2023/04/12 06:07:32;;;;;;;12.27;2.55;;;;;;;12.62;71.81;99852.38;4986973;28;20041;-39
2023/04/12 06:09:57;;;;;;;14.30;2.38;;;;;;;12.59;71.61;99848.03;4984116;28;20034;-41
2023/04/12 06:12:22;;;;;;;15.75;2.33;;;;;;;12.95;70.37;99839.75;4985424;28;20079;-38
2023/04/12 06:14:48;;;;;;;16.02;2.55;;;;;;;12.67;70.71;99854.06;4987260;28;20523;-38
2023/04/12 06:17:13;;;;;;;11.02;2.20;;;;;;;12.46;70.93;99852.53;4984034;28;20029;-41
2023/04/12 06:19:38;;;;;;;15.70;2.30;;;;;;;12.54;70.62;99857.69;4984476;28;20046;-39
2023/04/12 06:22:03;;;;;;;12.82;2.08;;;;;;;12.84;70.14;99866.94;4982226;28;20117;-39
2023/04/12 06:24:29;;;;;;;12.68;2.30;;;;;;;12.87;69.49;99861.66;4985829;28;20405;-38
2023/04/12 06:26:54;;;;;;;15.15;2.35;;;;;;;12.84;70.05;99869.56;4985139;28;20125;-41
2023/04/12 06:29:20;;;;;;;18.38;2.67;;;;;;;12.76;70.45;99869.63;4980692;28;20409;-38
2023/04/12 06:31:45;;;;;;;11.52;2.20;;;;;;;12.64;70.72;99868.91;4985608;28;20038;-38
2023/04/12 06:34:10;;;;;;;18.60;2.42;;;;;;;12.49;69.75;99865.59;4980241;28;20037;-39
2023/04/12 06:36:37;;;;;;;15.23;2.28;;;;;;;12.14;70.71;99859.81;4984816;28;20039;-37
2023/04/12 06:39:03;;;;;;;13.02;2.28;;;;;;;12.28;70.20;99865.78;4980967;28;20061;-41
2023/04/12 06:41:28;;;;;;;13.93;2.22;;;;;;;12.65;68.87;99863.66;4985498;28;20030;-36
2023/04/12 06:43:53;;;;;;;14.35;2.40;;;;;;;12.84;67.71;99859.09;4985886;28;20053;-37
2023/04/12 06:46:26;;;;;;;17.15;2.40;;;;;;;12.63;68.34;99856.69;4980538;28;20560;-37
2023/04/12 06:48:52;;;;;;;16.52;2.47;;;;;;;12.63;67.70;99860.19;4985182;28;20057;-40
2023/04/12 06:51:17;;;;;;;14.98;2.38;;;;;;;12.66;68.18;99859.31;4979700;28;20042;-37
2023/04/12 06:53:42;;;;;;;12.75;2.15;;;;;;;13.06;67.09;99854.44;4985231;28;20049;-37
2023/04/12 06:56:08;;;;;;;10.57;2.63;;;;;;;12.92;66.30;99854.63;4983078;28;20041;-38
2023/04/12 06:58:33;;;;;;;18.67;2.55;;;;;;;12.99;66.76;99859.75;4986465;28;20042;-38
2023/04/12 07:01:05;;;;;;;11.65;2.33;;;;;;;12.72;66.98;99854.88;4984058;28;20042;-38
2023/04/12 07:03:32;;;;;;;14.15;2.50;;;;;;;13.38;65.97;99854.91;4987906;28;20057;-37
2023/04/12 07:05:58;;;;;;;12.85;2.30;;;;;;;13.04;66.40;99854.47;4981402;28;20041;-39
2023/04/12 07:08:24;;;;;;;15.63;2.35;;;;;;;12.52;66.17;99857.69;4983414;28;20121;-40
2023/04/12 07:10:56;;;;;;;15.77;2.17;;;;;;;12.80;66.27;99849.56;4984011;28;20113;-34
2023/04/12 07:13:21;;;;;;;15.65;2.38;;;;;;;12.81;65.99;99857.34;4980919;28;20575;-37
2023/04/12 07:15:48;;;;;;;22.80;2.50;;;;;;;13.07;65.57;99851.81;4984420;28;20054;-38
2023/04/12 07:18:13;;;;;;;20.17;2.72;;;;;;;13.26;64.22;99842.88;4980963;28;20054;-37
2023/04/12 07:20:38;;;;;;;13.55;2.30;;;;;;;14.11;63.20;99833.66;4983505;28;20056;-39
2023/04/12 07:23:04;;;;;;;16.38;2.40;;;;;;;15.34;58.13;99832.97;4979291;28;20554;-37
2023/04/12 07:25:29;;;;;;;16.70;2.30;;;;;;;16.51;56.25;99824.81;4983061;28;20511;-37
2023/04/12 07:27:54;;;;;;;15.23;2.85;;;;;;;16.61;51.75;99816.63;4984019;28;20034;-41
2023/04/12 07:30:20;;;;;;;17.10;2.65;;;;;;;17.17;52.31;99813.25;4979986;28;20254;-41
2023/04/12 07:32:45;;;;;;;16.35;2.40;;;;;;;17.32;50.05;99808.38;4987763;28;20046;-42
2023/04/12 07:35:10;;;;;;;17.77;2.72;;;;;;;15.68;53.05;99818.16;4985368;28;20030;-38
2023/04/12 07:37:36;;;;;;;16.98;2.80;;;;;;;16.76;50.58;99812.72;4989941;28;20070;-42
2023/04/12 07:40:02;;;;;;;17.50;2.63;;;;;;;16.12;53.78;99818.81;4987341;28;20034;-40
2023/04/12 07:42:27;;;;;;;15.40;2.70;;;;;;;16.29;53.17;99818.38;4989808;28;20466;-38
2023/04/12 07:44:52;;;;;;;21.90;2.80;;;;;;;15.05;54.34;99801.25;4986581;28;20076;-39
2023/04/12 07:47:18;;;;;;;21.10;2.90;;;;;;;14.18;57.29;99816.06;4979398;28;20046;-37
2023/04/12 07:49:43;;;;;;;21.10;3.28;;;;;;;14.04;58.79;99815.44;4983416;28;20046;-37
2023/04/12 07:52:08;;;;;;;20.48;2.83;;;;;;;13.80;58.78;99820.22;4980207;28;20065;-38
2023/04/12 07:54:33;;;;;;;20.17;3.35;;;;;;;13.52;59.27;99815.44;4984055;28;20053;-37
2023/04/12 07:57:01;;;;;;;19.10;2.80;;;;;;;14.02;57.86;99815.50;4980782;28;20030;-39
2023/04/12 07:59:27;;;;;;;23.13;2.97;;;;;;;13.85;58.65;99822.75;4983781;28;20034;-38
2023/04/12 08:01:52;;;;;;;20.58;2.75;;;;;;;13.76;58.44;99817.66;4983725;28;20041;-38
2023/04/12 08:04:17;;;;;;;18.75;2.55;;;;;;;14.15;58.36;99821.34;4979908;28;20161;-41
2023/04/12 08:06:42;;;;;;;18.20;2.80;;;;;;;13.81;57.26;99821.94;4983528;28;20041;-40
2023/04/12 08:09:08;;;;;;;14.90;2.65;;;;;;;13.87;57.06;99822.72;4979713;28;20034;-39
2023/04/12 08:11:34;;;;;;;17.83;2.72;;;;;;;14.34;57.31;99821.88;4983772;28;20097;-43
2023/04/12 08:13:59;;;;;;;17.63;2.67;;;;;;;14.81;55.97;99829.75;4980556;28;20080;-38
2023/04/12 08:16:25;;;;;;;17.50;2.58;;;;;;;14.61;56.45;99822.28;4983352;28;20482;-38
2023/04/12 08:18:51;;;;;;;17.63;2.35;;;;;;;14.32;54.64;99824.56;4983585;28;20089;-38
2023/04/12 08:21:16;;;;;;;16.65;2.88;;;;;;;14.98;52.45;99826.75;4978449;28;20594;-38
2023/04/12 08:23:41;;;;;;;14.85;2.40;;;;;;;14.96;52.84;99828.53;4983465;28;20038;-38
2023/04/12 08:26:08;;;;;;;14.65;2.10;;;;;;;15.00;51.46;99820.56;4979901;28;20053;-38
2023/04/12 08:28:33;;;;;;;9.10;1.75;;;;;;;14.87;50.49;99831.38;4983637;28;20046;-38
2023/04/12 08:30:59;;;;;;;13.00;2.42;;;;;;;14.95;50.97;99826.81;4980166;28;20030;-39
2023/04/12 08:33:24;;;;;;;10.50;1.92;;;;;;;15.13;51.51;99825.56;4982168;28;20026;-38
2023/04/12 08:35:51;;;;;;;10.68;1.95;;;;;;;14.99;49.99;99828.50;4984021;28;20088;-39
2023/04/12 08:38:17;;;;;;;17.55;2.25;;;;;;;15.08;51.42;99822.16;4980314;28;20362;-38
2023/04/12 08:40:42;;;;;;;16.98;2.22;;;;;;;15.44;50.52;99814.34;4983540;28;20097;-41
2023/04/12 08:43:11;;;;;;;16.05;2.17;;;;;;;16.30;48.59;99810.47;4979873;28;20065;-35
2023/04/12 08:45:36;;;;;;;16.67;2.80;;;;;;;15.12;48.38;99801.09;4982473;28;20489;-38
2023/04/12 08:48:03;;;;;;;16.88;2.55;;;;;;;15.33;50.97;99812.84;4980989;28;20077;-38
2023/04/12 08:50:30;;;;;;;13.45;2.55;;;;;;;15.57;49.64;99816.69;4984117;28;20073;-38
2023/04/12 08:52:57;;;;;;;13.25;2.20;;;;;;;15.49;49.06;99805.50;4984324;28;20041;-40
2023/04/12 08:55:22;;;;;;;14.27;2.60;;;;;;;15.95;48.37;99802.63;4980924;28;20050;-38
2023/04/12 08:57:50;;;;;;;17.48;2.42;;;;;;;15.29;49.84;99798.94;4984335;28;20097;-39
2023/04/12 09:00:16;;;;;;;16.08;2.60;;;;;;;14.67;52.07;99795.03;4981025;28;20030;-42
2023/04/12 09:02:45;;;;;;;16.75;2.42;;;;;;;15.10;52.09;99795.00;4985019;28;20096;-37
2023/04/12 09:05:11;;;;;;;20.58;2.83;;;;;;;14.65;52.43;99802.06;4980931;28;20034;-39
2023/04/12 09:07:36;;;;;;;16.08;2.67;;;;;;;14.33;52.95;99805.31;4985928;28;20416;-38
2023/04/12 09:10:03;;;;;;;18.08;2.88;;;;;;;14.46;53.46;99803.31;4983261;28;20030;-40
2023/04/12 09:12:29;;;;;;;15.55;2.83;;;;;;;15.35;51.57;99811.94;4986312;28;20528;-38
2023/04/12 09:15:09;;;;;;;18.30;2.78;;;;;;;15.09;51.51;99813.41;4984287;28;20089;-39
2023/04/12 09:17:35;;;;;;;15.50;2.70;;;;;;;15.62;50.24;99818.31;4983511;28;20038;-39
2023/04/12 09:20:16;;;;;;;16.05;2.65;;;;;;;15.49;50.27;99816.00;4979104;28;20455;-38
2023/04/12 09:22:45;;;;;;;21.08;3.33;;;;;;;15.41;50.38;99817.03;4981890;28;20050;-42
2023/04/12 09:25:11;;;;;;;18.00;2.40;;;;;;;16.33;50.72;99818.28;4978103;28;20060;-42
2023/04/12 09:27:50;;;;;;;16.23;2.80;;;;;;;16.41;46.93;99818.91;4982369;28;20485;-40
2023/04/12 09:30:17;;;;;;;16.98;2.97;;;;;;;15.97;48.63;99813.97;4980444;28;20035;-41
2023/04/12 09:32:43;;;;;;;18.00;2.40;;;;;;;15.49;47.42;99811.59;4983439;28;20046;-42
2023/04/12 09:35:08;;;;;;;14.77;2.08;;;;;;;15.38;48.69;99811.84;4979918;28;20096;-40
2023/04/12 09:37:34;;;;;;;14.05;2.72;;;;;;;15.55;47.35;99813.28;4983888;28;20042;-38
2023/04/12 09:40:05;;;;;;;13.95;2.63;;;;;;;15.71;47.53;99812.84;4979855;28;20038;-40
2023/04/12 09:42:33;;;;;;;13.18;2.03;;;;;;;15.76;46.83;99808.34;4982883;28;20045;-39
2023/04/12 09:45:00;;;;;;;13.63;2.70;;;;;;;15.57;47.79;99809.69;4978530;28;20426;-39
2023/04/12 09:47:36;;;;;;;15.20;3.10;;;;;;;14.75;49.49;99813.25;4982311;28;20030;-42
2023/04/12 09:50:03;;;;;;;18.10;2.95;;;;;;;15.39;48.16;99815.34;4980073;28;20037;-39
2023/04/12 09:52:35;;;;;;;13.48;2.58;;;;;;;15.25;49.26;99813.03;4983181;28;20027;-38
2023/04/12 09:55:02;;;;;;;17.08;2.85;;;;;;;15.37;47.95;99815.38;4979567;28;20030;-39
2023/04/12 09:57:27;;;;;;;22.40;3.45;;;;;;;15.38;48.08;99817.09;4986586;28;20177;-40
2023/04/12 09:59:58;;;;;;;19.55;2.92;;;;;;;14.71;50.27;99819.44;4985993;28;20039;-39
2023/04/12 10:02:27;;;;;;;11.88;2.42;;;;;;;15.87;48.96;99818.59;4983045;28;20130;-40
2023/04/12 10:04:53;;;;;;;12.90;2.50;;;;;;;15.66;49.52;99816.50;4983725;28;20042;-36
2023/04/12 10:07:18;;;;;;;15.15;2.53;;;;;;;16.22;45.51;99810.66;4981837;28;20035;-41
2023/04/12 10:09:45;;;;;;;10.40;1.98;;;;;;;15.23;42.80;99811.34;4986431;28;20035;-37
2023/04/12 10:12:10;;;;;;;10.63;1.80;;;;;;;15.10;43.86;99809.88;4985262;28;20026;-38
2023/04/12 10:14:36;;;;;;;10.25;2.08;;;;;;;14.74;45.15;99806.28;4988756;28;20083;-38
2023/04/12 10:17:03;;;;;;;12.50;1.95;;;;;;;15.44;46.20;99809.06;4986042;28;20441;-40
2023/04/12 10:19:30;;;;;;;12.15;2.70;;;;;;;16.22;45.69;99810.66;4984665;28;20058;-42
2023/04/12 10:21:56;;;;;;;12.50;2.22;;;;;;;15.78;42.64;99811.81;4985002;28;20112;-39
2023/04/12 10:24:23;;;;;;;9.85;1.80;;;;;;;15.62;40.36;99799.06;4982284;28;20038;-39
2023/04/12 10:26:49;;;;;;;12.20;1.77;;;;;;;15.89;42.97;99802.78;4985598;28;20035;-38
2023/04/12 10:29:35;;;;;;;14.52;2.50;;;;;;;16.02;43.18;99812.09;4981640;28;20043;-39
2023/04/12 10:32:18;;;;;;;14.00;2.17;;;;;;;15.08;43.31;99806.41;4979713;28;20042;-39
2023/04/12 10:34:43;;;;;;;12.00;2.00;;;;;;;15.21;45.00;99815.75;4984899;28;20062;-39
2023/04/12 10:37:08;;;;;;;10.15;2.22;;;;;;;14.67;45.23;99815.16;4981469;28;20073;-38
2023/04/12 10:39:42;;;;;;;14.48;2.05;;;;;;;14.89;44.13;99813.81;4988148;28;20039;-41
2023/04/12 10:42:21;;;;;;;12.80;1.98;;;;;;;14.71;43.70;99803.69;4978509;28;20030;-41
2023/04/12 10:44:47;;;;;;;8.43;1.60;;;;;;;15.16;42.70;99812.38;4985224;28;20065;-38
2023/04/12 10:47:13;;;;;;;10.65;1.73;;;;;;;15.27;41.40;99819.13;4986820;28;20035;-39
2023/04/12 10:49:39;;;;;;;11.38;2.20;;;;;;;15.24;43.02;99805.19;4990755;28;20061;-38
2023/04/12 10:52:04;;;;;;;9.27;1.98;;;;;;;14.75;42.83;99819.38;4987651;28;20129;-39
2023/04/12 10:54:34;;;;;;;9.32;1.90;;;;;;;14.54;42.11;99820.66;4989419;28;20459;-40
2023/04/12 10:57:00;;;;;;;12.43;2.08;;;;;;;14.84;42.15;99816.53;4984901;28;20038;-39
2023/04/12 10:59:56;;;;;;;8.35;1.80;;;;;;;15.02;40.04;99817.91;4985983;28;20030;-40
2023/04/12 11:02:21;;;;;;;7.53;1.42;;;;;;;14.77;38.91;99822.81;4980081;28;20043;-39
2023/04/12 11:05:18;;;;;;;8.70;1.60;;;;;;;15.01;38.27;99829.31;4984595;28;20081;-37
2023/04/12 11:07:43;;;;;;;4.70;1.08;;;;;;;15.05;36.92;99827.50;4975644;28;20259;-42
2023/04/12 11:10:18;;;;;;;7.55;1.25;;;;;;;15.47;38.41;99829.16;4980980;28;20034;-38
2023/04/12 11:12:56;;;;;;;11.73;1.42;;;;;;;15.22;39.86;99823.59;4984615;28;20050;-39
2023/04/12 11:15:26;;;;;;;10.15;1.85;;;;;;;14.68;38.90;99825.63;4981683;28;20034;-39
2023/04/12 11:17:56;;;;;;;9.32;1.80;;;;;;;14.90;39.72;99836.53;4983321;28;20030;-39
2023/04/12 11:20:21;;;;;;;9.98;1.20;;;;;;;14.84;37.88;99839.28;4981706;28;20527;-39
2023/04/12 11:22:48;;;;;;;7.93;1.40;;;;;;;14.96;38.61;99837.28;4984959;28;20125;-39
2023/04/12 11:25:16;;;;;;;5.00;1.13;;;;;;;15.08;38.25;99835.28;4981696;28;20440;-39
2023/04/12 11:27:52;;;;;;;5.57;1.10;;;;;;;14.50;37.41;99839.09;4984693;28;20370;-39